INFORMAÇÕES METEOROLÓGICAS
METAR FOR SBQV
ADDS - METARS form results

(0152 UTC 25 April 2019)
Data provider http://aviationweather.gov/metar/data/
 
METAR text: SBQV 250100Z 14007KT 9999 SCT010 21/18 Q1021
Conditions at: SBQV (VITORIA DA CONQU, BR) observed 0100 UTC 25 April 2019
Temperature: 21.0°C (70°F)
Dewpoint: 18.0°C (64°F) [RH = 83%]
Pressure (altimeter): 30.15 inches Hg (1021.0 mb)
Winds: from the SE (140 degrees) at 8 MPH (7 knots; 3.6 m/s)
Visibility: 6 or more miles (10+ km)
Ceiling: at least 12,000 feet AGL
Clouds: scattered clouds at 1000 feet AGL
Weather: no significant weather observed at this time

 MAPA DO AEROPORTO

 INFORMAÇÕES DA PISTA
Pista 15 Tamanho da pista 5823 ft Largura da pista 98 ft
Elevação da pista 0 ft Ranhura da pista 0 ft Proa da pista 0
Pista 33 Tamanho da pista 5823 ft Largura da pista 98 ft
Elevação da pista 0 ft Ranhura da pista 0 ft Proa da pista 0

 FREQUÊNCIAS DO AEROPORTO
Tipo AFIS Nome RDO Frequência 130.3 MHZ

 AUXÍLIOS DE NAVEGAÇÃO PRÓXIMOS AO AEROPORTO
Tipo NDB Nome Conquista Frequência 260 KHZ





Powered by Virtual Airlines Manager [v2.6.2]